Time;durP1;ratioP1;P1;durP2;ratioP2;P2;SDS_P1;SDS_P2;PMS_P1;PMS_P2;Temp;Humidity;BMP_temperature;BMP_pressure;BME280_temperature;BME280_humidity;BME280_pressure;Samples;Min_cycle;Max_cycle;Signal;HPM_P1;HPM_P2
2022/02/17 00:00:39;;;;;;;2.47;1.30;;;;;;;1.10;96.62;95583.44;5065668;28;20071;-76
2022/02/17 00:03:04;;;;;;;1.33;0.95;;;;;;;1.13;96.69;95577.38;5047705;28;20058;-77
2022/02/17 00:05:30;;;;;;;1.70;1.10;;;;;;;1.14;96.69;95573.91;5046897;28;20032;-76
2022/02/17 00:07:56;;;;;;;1.30;1.08;;;;;;;1.18;96.68;95566.94;5046873;28;20100;-77
2022/02/17 00:10:26;;;;;;;1.88;1.55;;;;;;;1.14;96.74;95571.34;5064940;28;20108;-76
2022/02/17 00:12:53;;;;;;;2.30;1.50;;;;;;;1.16;96.74;95563.63;5064836;28;20085;-76
2022/02/17 00:15:18;;;;;;;2.75;1.70;;;;;;;1.14;97.01;95555.19;5064907;28;20465;-76
2022/02/17 00:17:44;;;;;;;2.72;1.40;;;;;;;1.18;96.93;95560.06;5064991;28;20029;-77
2022/02/17 00:20:09;;;;;;;1.65;1.08;;;;;;;1.14;96.94;95561.13;5064821;28;20029;-77
2022/02/17 00:22:36;;;;;;;0.88;0.60;;;;;;;1.23;96.67;95570.09;5064877;28;20070;-76
2022/02/17 00:25:01;;;;;;;3.42;1.80;;;;;;;1.15;96.69;95561.97;5064597;28;20045;-76
2022/02/17 00:27:27;;;;;;;2.38;1.48;;;;;;;1.13;96.80;95558.66;5064564;28;20058;-75
2022/02/17 00:29:52;;;;;;;4.22;2.05;;;;;;;1.15;96.97;95564.53;5064776;28;20025;-77
2022/02/17 00:32:17;;;;;;;2.95;2.00;;;;;;;1.09;97.01;95540.09;5064960;28;20468;-77
2022/02/17 00:34:43;;;;;;;3.38;1.80;;;;;;;1.15;97.01;95552.56;5046741;28;20021;-77
2022/02/17 00:37:08;;;;;;;2.42;1.48;;;;;;;1.18;96.98;95556.72;5064487;28;20025;-77
2022/02/17 00:39:35;;;;;;;2.70;1.88;;;;;;;1.13;96.98;95533.94;5065036;28;20025;-77
2022/02/17 00:42:01;;;;;;;2.47;1.55;;;;;;;1.17;97.18;95540.56;5064572;28;20021;-76
2022/02/17 00:44:26;;;;;;;2.28;1.55;;;;;;;1.16;97.06;95549.13;5064817;28;20044;-77
2022/02/17 00:46:52;;;;;;;4.30;1.65;;;;;;;1.10;96.71;95544.31;5064449;28;20013;-77
2022/02/17 00:49:17;;;;;;;2.58;1.80;;;;;;;1.14;97.03;95555.19;5064216;28;20024;-76
2022/02/17 00:51:43;;;;;;;1.77;1.20;;;;;;;1.08;97.10;95543.56;5063865;28;20028;-76
2022/02/17 00:54:09;;;;;;;2.33;1.60;;;;;;;1.14;96.94;95556.03;5064263;28;20032;-77
2022/02/17 00:56:35;;;;;;;3.03;1.65;;;;;;;1.15;96.93;95557.66;5064267;28;20041;-76
2022/02/17 00:59:01;;;;;;;7.57;2.15;;;;;;;1.14;97.07;95558.59;5046012;28;20041;-75
2022/02/17 01:01:26;;;;;;;3.80;1.45;;;;;;;1.11;96.93;95551.06;5063297;28;20021;-75
2022/02/17 01:03:52;;;;;;;2.03;1.45;;;;;;;1.08;97.07;95562.28;5064057;28;20662;-75
2022/02/17 01:06:17;;;;;;;3.92;2.10;;;;;;;1.12;97.19;95568.03;5045779;28;20104;-75
2022/02/17 01:08:43;;;;;;;6.25;3.20;;;;;;;1.02;97.22;95564.28;5063832;28;20517;-76
2022/02/17 01:11:08;;;;;;;4.63;2.20;;;;;;;1.10;97.34;95580.88;5063917;28;20044;-75
2022/02/17 01:13:33;;;;;;;3.53;1.88;;;;;;;1.12;97.28;95583.38;5063841;28;20025;-75
2022/02/17 01:15:59;;;;;;;4.25;2.75;;;;;;;1.08;97.30;95571.66;5063894;28;20029;-77
2022/02/17 01:18:24;;;;;;;1.75;1.00;;;;;;;1.09;97.15;95580.97;5063776;28;20053;-76
2022/02/17 01:20:50;;;;;;;8.32;2.92;;;;;;;1.09;97.18;95578.41;5063519;28;20033;-77
2022/02/17 01:23:16;;;;;;;7.97;2.28;;;;;;;1.07;97.35;95581.03;5063766;28;20082;-76
2022/02/17 01:25:42;;;;;;;5.10;2.58;;;;;;;1.09;97.20;95584.34;5063386;28;20071;-75
2022/02/17 01:28:08;;;;;;;3.42;2.10;;;;;;;1.15;97.17;95593.44;5063448;28;20025;-76
2022/02/17 01:30:34;;;;;;;3.83;2.22;;;;;;;1.11;97.15;95592.78;5063592;28;20082;-75
2022/02/17 01:32:59;;;;;;;4.65;2.25;;;;;;;1.12;97.25;95598.69;5063560;28;20039;-75
2022/02/17 01:35:24;;;;;;;3.33;1.85;;;;;;;1.14;97.40;95596.91;5045296;28;20393;-75
2022/02/17 01:37:50;;;;;;;1.92;1.35;;;;;;;1.12;97.30;95596.13;5063422;28;20112;-74
2022/02/17 01:40:15;;;;;;;3.00;1.80;;;;;;;1.13;96.87;95602.91;5063672;28;20025;-78
2022/02/17 01:42:41;;;;;;;2.28;1.38;;;;;;;1.14;97.14;95611.38;5063613;28;20039;-77
2022/02/17 01:45:08;;;;;;;2.33;1.30;;;;;;;1.15;96.88;95615.63;5063531;28;20025;-77
2022/02/17 01:47:34;;;;;;;1.52;1.20;;;;;;;1.11;97.05;95623.41;5063133;28;20033;-77
2022/02/17 01:50:00;;;;;;;3.35;1.67;;;;;;;0.99;97.06;95608.69;5063499;28;20040;-76
2022/02/17 01:52:25;;;;;;;2.45;1.38;;;;;;;1.06;97.30;95615.16;5063037;28;20021;-76
2022/02/17 01:54:51;;;;;;;4.57;1.38;;;;;;;1.07;97.31;95618.53;5045301;28;20017;-76
2022/02/17 01:57:21;;;;;;;1.92;1.15;;;;;;;1.05;97.09;95612.66;5063188;28;20031;-75
2022/02/17 01:59:47;;;;;;;2.10;1.30;;;;;;;1.07;97.08;95626.19;5045232;28;20021;-75
2022/02/17 02:02:13;;;;;;;2.28;1.25;;;;;;;1.05;97.00;95636.50;5063456;28;20480;-75
2022/02/17 02:04:38;;;;;;;1.77;1.23;;;;;;;1.05;97.09;95622.88;5062802;28;20025;-77
2022/02/17 02:07:07;;;;;;;3.45;1.40;;;;;;;1.03;97.24;95630.63;5062969;28;20048;-75
2022/02/17 02:09:33;;;;;;;2.55;1.40;;;;;;;1.02;96.98;95633.25;5063140;28;20053;-76
2022/02/17 02:11:59;;;;;;;2.72;1.23;;;;;;;1.00;96.99;95635.88;5062985;28;20017;-77
2022/02/17 02:14:24;;;;;;;2.70;1.45;;;;;;;0.99;96.94;95640.13;5066673;28;20382;-75
2022/02/17 02:16:52;;;;;;;1.83;1.50;;;;;;;1.01;97.01;95637.50;5067063;28;20098;-75
2022/02/17 02:19:18;;;;;;;2.35;1.55;;;;;;;1.01;96.96;95641.81;5067012;28;20025;-76
2022/02/17 02:21:43;;;;;;;2.22;1.30;;;;;;;0.98;96.84;95642.75;5066583;28;20036;-76
2022/02/17 02:24:09;;;;;;;3.75;2.08;;;;;;;0.98;97.09;95664.03;5066534;28;20040;-75
2022/02/17 02:26:34;;;;;;;2.10;1.20;;;;;;;0.99;97.01;95660.56;5048675;28;20040;-75
2022/02/17 02:29:00;;;;;;;3.72;1.88;;;;;;;0.93;97.08;95665.97;5047958;28;20064;-75
2022/02/17 02:31:26;;;;;;;3.55;1.95;;;;;;;0.94;97.05;95666.81;5066581;28;20017;-75
2022/02/17 02:33:51;;;;;;;4.00;2.47;;;;;;;0.92;97.05;95671.97;5066927;28;20036;-75
2022/02/17 02:36:17;;;;;;;3.05;1.85;;;;;;;0.98;96.71;95670.84;5048526;28;20059;-79
2022/02/17 02:38:42;;;;;;;2.10;1.27;;;;;;;0.90;96.71;95670.38;5066674;28;20029;-77
2022/02/17 02:41:08;;;;;;;1.55;1.10;;;;;;;0.92;96.54;95684.75;5066907;28;20052;-77
2022/02/17 02:43:34;;;;;;;1.75;1.30;;;;;;;0.84;96.59;95686.81;5048505;28;20033;-77
2022/02/17 02:46:00;;;;;;;1.58;1.00;;;;;;;0.88;96.35;95695.16;5066484;28;20443;-76
2022/02/17 02:48:25;;;;;;;1.85;1.30;;;;;;;0.82;96.48;95696.25;5066419;28;20064;-75
2022/02/17 02:50:50;;;;;;;2.60;1.20;;;;;;;0.78;96.60;95695.59;5066325;28;20025;-77
2022/02/17 02:53:17;;;;;;;1.85;1.33;;;;;;;0.76;96.48;95699.09;5066504;28;20024;-75
2022/02/17 02:55:44;;;;;;;2.55;1.77;;;;;;;0.79;96.55;95706.63;5066353;28;20047;-74
2022/02/17 02:58:11;;;;;;;2.10;1.20;;;;;;;0.75;96.50;95700.84;5066315;28;20057;-75
2022/02/17 03:00:36;;;;;;;3.97;1.88;;;;;;;0.66;96.66;95703.78;5066390;28;20032;-75
2022/02/17 03:03:02;;;;;;;3.17;1.60;;;;;;;0.67;96.80;95726.69;5066270;28;20027;-74
2022/02/17 03:05:27;;;;;;;1.92;1.20;;;;;;;0.72;96.87;95723.91;5066145;28;20045;-74
2022/02/17 03:07:54;;;;;;;1.23;0.70;;;;;;;0.68;96.84;95728.34;5065835;28;20392;-72
2022/02/17 03:10:20;;;;;;;2.80;1.60;;;;;;;0.71;96.80;95720.56;5066143;28;20483;-74
2022/02/17 03:12:47;;;;;;;2.67;1.27;;;;;;;0.66;96.71;95724.19;5048029;28;20420;-73
2022/02/17 03:15:12;;;;;;;1.65;1.17;;;;;;;0.72;96.72;95726.47;5066178;28;20025;-74
2022/02/17 03:17:38;;;;;;;1.20;0.88;;;;;;;0.66;96.79;95737.78;5065611;28;20491;-73
2022/02/17 03:20:07;;;;;;;3.03;1.70;;;;;;;0.72;96.71;95746.91;5065818;28;20023;-75
2022/02/17 03:22:37;;;;;;;1.27;1.10;;;;;;;0.79;96.57;95765.31;5065587;28;20067;-73
2022/02/17 03:25:04;;;;;;;1.23;0.90;;;;;;;0.72;96.53;95752.84;5064534;28;20052;-73
2022/02/17 03:27:29;;;;;;;4.07;1.80;;;;;;;0.74;96.65;95765.53;5065126;28;20025;-74
2022/02/17 03:29:55;;;;;;;2.53;1.50;;;;;;;0.76;96.83;95768.00;5064583;28;20051;-74
2022/02/17 03:32:20;;;;;;;1.80;1.17;;;;;;;0.80;96.69;95778.03;5065464;28;20112;-75
2022/02/17 03:34:46;;;;;;;1.75;0.93;;;;;;;0.81;96.68;95784.81;5065771;28;20039;-77
2022/02/17 03:37:11;;;;;;;2.40;1.15;;;;;;;0.82;96.52;95785.63;5047326;28;20025;-76
2022/02/17 03:39:37;;;;;;;2.20;1.10;;;;;;;0.89;96.27;95807.44;5065651;28;20219;-77
2022/02/17 03:42:03;;;;;;;0.60;0.60;;;;;;;0.88;96.48;95822.84;5065549;28;20059;-74
2022/02/17 03:44:29;;;;;;;1.88;1.20;;;;;;;0.84;96.58;95810.19;5065611;28;20020;-76
2022/02/17 03:46:55;;;;;;;2.33;1.30;;;;;;;0.85;96.52;95822.06;5065498;28;20025;-79
2022/02/17 03:49:21;;;;;;;3.03;1.63;;;;;;;0.94;96.41;95836.13;5065548;28;20021;-76
2022/02/17 03:51:46;;;;;;;1.30;0.93;;;;;;;0.99;96.52;95853.84;5046974;28;20025;-75
2022/02/17 03:54:11;;;;;;;1.50;1.17;;;;;;;1.02;96.03;95850.31;5065411;28;20044;-76
2022/02/17 03:56:37;;;;;;;2.13;1.40;;;;;;;1.01;96.24;95857.13;5065281;28;20089;-75
2022/02/17 03:59:03;;;;;;;2.17;1.40;;;;;;;1.04;96.37;95856.19;5065161;28;20021;-76
2022/02/17 04:01:30;;;;;;;3.15;1.05;;;;;;;1.08;95.89;95857.72;5065100;28;20020;-76
2022/02/17 04:03:55;;;;;;;1.67;1.20;;;;;;;1.01;95.79;95886.97;5065116;28;20028;-76
2022/02/17 04:06:20;;;;;;;2.33;1.65;;;;;;;1.05;95.63;95883.38;5064963;28;20025;-76
2022/02/17 04:08:46;;;;;;;3.53;1.00;;;;;;;1.05;95.61;95868.91;5047095;28;20027;-75
2022/02/17 04:11:11;;;;;;;0.93;0.82;;;;;;;1.03;95.72;95913.25;5065030;28;20524;-76
2022/02/17 04:13:37;;;;;;;2.70;1.65;;;;;;;1.08;95.33;95931.78;5065099;28;20026;-76
2022/02/17 04:16:03;;;;;;;1.10;0.80;;;;;;;1.06;95.49;95941.22;5065015;28;20128;-76
2022/02/17 04:18:29;;;;;;;1.73;1.02;;;;;;;1.02;95.68;95939.69;5046844;28;20508;-76
2022/02/17 04:20:54;;;;;;;2.40;1.20;;;;;;;1.01;95.79;95932.94;5064805;28;20132;-74
2022/02/17 04:23:20;;;;;;;2.55;1.15;;;;;;;0.98;95.93;95937.28;5046922;28;20021;-74
2022/02/17 04:25:45;;;;;;;1.52;1.02;;;;;;;1.10;95.38;95958.09;5064532;28;20052;-75
2022/02/17 04:28:10;;;;;;;1.55;1.15;;;;;;;1.10;95.14;95968.31;5064697;28;20033;-75
2022/02/17 04:30:36;;;;;;;2.20;1.13;;;;;;;1.09;95.46;95979.41;5064692;28;20025;-75
2022/02/17 04:33:02;;;;;;;6.13;1.27;;;;;;;1.15;94.73;95976.59;5064630;28;20024;-75
2022/02/17 04:35:28;;;;;;;1.33;0.90;;;;;;;1.09;94.97;95989.63;5064375;28;20029;-75
2022/02/17 04:37:53;;;;;;;0.75;0.68;;;;;;;0.98;94.34;95974.75;5064260;28;20300;-75
2022/02/17 04:40:18;;;;;;;2.13;0.80;;;;;;;1.02;94.46;95996.72;5064540;28;20032;-76
2022/02/17 04:42:44;;;;;;;1.52;1.08;;;;;;;1.03;94.50;96007.75;5046444;28;20164;-75
2022/02/17 04:45:09;;;;;;;1.42;1.00;;;;;;;1.12;94.26;96017.59;5064433;28;20090;-74
2022/02/17 04:47:35;;;;;;;2.47;1.17;;;;;;;1.02;94.57;96027.38;5064280;28;20031;-74
2022/02/17 04:50:00;;;;;;;2.47;1.00;;;;;;;1.01;94.38;96024.88;5064258;28;20430;-74
2022/02/17 04:52:26;;;;;;;1.40;1.00;;;;;;;0.99;94.52;96041.09;5064104;28;20040;-75
2022/02/17 04:54:55;;;;;;;1.17;0.93;;;;;;;1.01;94.50;96035.91;5064454;28;20025;-74
2022/02/17 04:57:20;;;;;;;1.90;0.88;;;;;;;1.07;94.20;96085.94;5064109;28;20044;-75
2022/02/17 04:59:46;;;;;;;2.83;1.10;;;;;;;1.08;94.21;96092.69;5064141;28;20028;-75
2022/02/17 05:02:11;;;;;;;1.58;0.95;;;;;;;1.08;94.31;96090.16;5046064;28;20020;-74
2022/02/17 05:04:37;;;;;;;2.13;0.88;;;;;;;1.10;94.17;96101.13;5064177;28;20041;-71
2022/02/17 05:07:03;;;;;;;2.72;1.08;;;;;;;1.06;94.31;96102.97;5063789;28;20032;-71
2022/02/17 05:09:28;;;;;;;1.40;1.00;;;;;;;1.02;94.50;96108.25;5063783;28;20033;-72
2022/02/17 05:11:53;;;;;;;1.40;0.93;;;;;;;1.10;94.20;96122.38;5063644;28;20029;-67
2022/02/17 05:14:19;;;;;;;2.53;1.10;;;;;;;1.04;94.26;96127.75;5063863;28;20070;-70
2022/02/17 05:16:44;;;;;;;1.42;1.05;;;;;;;1.04;94.27;96144.81;5063824;28;20112;-69
2022/02/17 05:19:10;;;;;;;1.98;1.23;;;;;;;1.06;94.46;96148.09;5063784;28;20029;-65
2022/02/17 05:21:36;;;;;;;2.70;1.23;;;;;;;1.06;94.21;96168.53;5063593;28;20025;-69
2022/02/17 05:24:01;;;;;;;3.05;1.55;;;;;;;1.05;94.63;96174.56;5063745;28;20032;-75
2022/02/17 05:26:26;;;;;;;1.75;1.25;;;;;;;1.10;94.49;96176.03;5042289;28;20045;-74
2022/02/17 05:28:52;;;;;;;2.53;1.33;;;;;;;1.04;94.24;96167.78;5043676;28;20572;-74
2022/02/17 05:31:17;;;;;;;4.30;1.30;;;;;;;0.90;94.52;96170.84;5043533;28;20101;-75
2022/02/17 05:33:42;;;;;;;4.40;2.00;;;;;;;1.11;94.50;96197.31;5042250;28;20033;-69
2022/02/17 05:36:08;;;;;;;2.38;1.45;;;;;;;1.14;94.52;96207.41;5043291;28;20025;-73
2022/02/17 05:38:33;;;;;;;3.67;1.77;;;;;;;1.16;94.44;96207.34;5042032;28;20017;-70
2022/02/17 05:40:58;;;;;;;2.25;1.73;;;;;;;1.04;94.72;96189.03;5043533;28;20025;-71
2022/02/17 05:43:24;;;;;;;2.55;1.55;;;;;;;1.14;94.38;96194.63;5043335;28;20077;-70
2022/02/17 05:45:49;;;;;;;3.35;1.50;;;;;;;1.18;94.11;96215.78;5043473;28;20071;-69
2022/02/17 05:48:14;;;;;;;3.75;2.00;;;;;;;1.22;93.92;96245.44;5041889;28;20025;-69
2022/02/17 05:50:40;;;;;;;3.35;1.58;;;;;;;1.23;94.25;96258.16;5041989;28;20047;-69
2022/02/17 05:53:06;;;;;;;4.80;2.05;;;;;;;1.28;94.22;96262.28;5042297;28;20040;-69
2022/02/17 05:55:31;;;;;;;2.60;1.55;;;;;;;1.15;94.33;96244.00;5042794;28;20030;-68
2022/02/17 05:57:57;;;;;;;4.82;2.08;;;;;;;1.18;94.19;96266.88;5043274;28;20025;-68
2022/02/17 06:00:22;;;;;;;4.43;2.15;;;;;;;1.36;93.88;96285.78;5043240;28;20026;-68
2022/02/17 06:02:48;;;;;;;5.18;2.30;;;;;;;1.36;93.82;96293.44;5043429;28;20154;-69
2022/02/17 06:05:16;;;;;;;6.03;2.17;;;;;;;1.31;94.07;96313.25;5043317;28;20044;-68
2022/02/17 06:07:42;;;;;;;6.47;2.17;;;;;;;1.30;93.99;96312.41;5042984;28;20021;-68
2022/02/17 06:10:08;;;;;;;3.35;1.73;;;;;;;1.34;94.01;96328.47;5043003;28;20025;-68
2022/02/17 06:12:43;;;;;;;7.00;2.30;;;;;;;1.34;94.15;96351.47;5043250;28;20029;-68
2022/02/17 06:15:09;;;;;;;3.70;1.65;;;;;;;1.33;94.35;96353.19;5043213;28;20073;-68
2022/02/17 06:17:35;;;;;;;7.63;2.05;;;;;;;1.40;94.38;96370.84;5043133;28;20044;-68
2022/02/17 06:20:00;;;;;;;6.72;2.03;;;;;;;1.39;94.38;96372.56;5043210;28;20021;-69
2022/02/17 06:22:26;;;;;;;3.08;1.45;;;;;;;1.38;94.28;96380.28;5042729;28;20017;-68
2022/02/17 06:24:53;;;;;;;7.18;2.17;;;;;;;1.40;94.16;96388.75;5049030;28;20052;-69
2022/02/17 06:27:18;;;;;;;4.28;1.67;;;;;;;1.42;94.37;96407.41;5062921;28;20453;-67
2022/02/17 06:29:43;;;;;;;2.42;1.63;;;;;;;1.43;94.43;96419.28;5062840;28;20029;-68
2022/02/17 06:32:09;;;;;;;7.15;2.17;;;;;;;1.46;94.41;96430.25;5062876;28;20031;-67
2022/02/17 06:34:34;;;;;;;6.22;1.90;;;;;;;1.50;94.35;96432.69;5062816;28;20382;-68
2022/02/17 06:37:00;;;;;;;5.53;2.22;;;;;;;1.50;94.57;96446.31;5062791;28;20025;-67
2022/02/17 06:39:25;;;;;;;4.07;1.70;;;;;;;1.34;94.73;96425.59;5062910;28;20025;-67
2022/02/17 06:41:50;;;;;;;3.60;2.17;;;;;;;1.50;94.25;96463.38;5062847;28;20021;-68
2022/02/17 06:44:16;;;;;;;2.72;1.15;;;;;;;1.45;94.13;96469.47;5062988;28;20035;-68
2022/02/17 06:46:41;;;;;;;7.18;3.45;;;;;;;1.47;94.28;96477.09;5062991;28;20157;-69
2022/02/17 06:49:06;;;;;;;6.18;2.20;;;;;;;1.48;94.38;96494.94;5062860;28;20036;-67
2022/02/17 06:51:32;;;;;;;5.60;2.13;;;;;;;1.43;93.99;96488.31;5062302;28;20024;-68
2022/02/17 06:53:57;;;;;;;6.07;1.77;;;;;;;1.39;94.06;96497.78;5062881;28;20021;-67
2022/02/17 06:56:22;;;;;;;11.02;2.55;;;;;;;1.33;94.17;96506.53;5062782;28;20461;-67
2022/02/17 06:58:48;;;;;;;5.78;1.83;;;;;;;1.45;94.34;96530.00;5063609;28;20067;-67
2022/02/17 07:01:13;;;;;;;11.43;3.92;;;;;;;1.41;93.90;96536.94;5066521;28;20063;-68
2022/02/17 07:03:39;;;;;;;6.25;2.30;;;;;;;1.45;94.28;96555.56;5066776;28;20028;-67
2022/02/17 07:06:04;;;;;;;11.82;2.90;;;;;;;1.43;94.21;96547.09;5066133;28;20036;-65
2022/02/17 07:08:30;;;;;;;8.90;2.47;;;;;;;1.40;94.12;96563.38;5066284;28;20185;-68
2022/02/17 07:10:55;;;;;;;12.35;3.10;;;;;;;1.53;94.20;96574.03;5048079;28;20025;-67
2022/02/17 07:13:30;;;;;;;8.18;2.85;;;;;;;1.51;94.25;96596.25;5066333;28;20032;-66
2022/02/17 07:15:57;;;;;;;5.80;1.70;;;;;;;1.50;93.97;96601.41;5066215;28;20439;-67
2022/02/17 07:18:24;;;;;;;13.45;3.15;;;;;;;1.45;93.70;96612.59;5066240;28;20025;-68
2022/02/17 07:20:51;;;;;;;15.00;3.20;;;;;;;1.47;93.81;96621.06;5066171;28;20105;-68
2022/02/17 07:23:17;;;;;;;12.63;2.50;;;;;;;1.51;93.94;96631.19;5048306;28;20016;-69
2022/02/17 07:25:46;;;;;;;4.95;2.20;;;;;;;1.49;94.13;96628.69;5065867;28;20045;-66
2022/02/17 07:28:13;;;;;;;10.27;2.80;;;;;;;1.51;94.17;96636.31;5047719;28;20055;-68
2022/02/17 07:30:41;;;;;;;10.63;2.90;;;;;;;1.59;94.13;96649.69;5065400;28;20056;-66
2022/02/17 07:33:08;;;;;;;16.10;2.90;;;;;;;1.64;94.18;96646.97;5065987;28;20025;-67
2022/02/17 07:35:33;;;;;;;13.10;3.17;;;;;;;1.65;94.27;96657.16;5065873;28;20060;-68
2022/02/17 07:37:59;;;;;;;15.48;3.13;;;;;;;1.68;94.20;96669.81;5064498;28;20051;-68
2022/02/17 07:40:24;;;;;;;10.32;3.03;;;;;;;1.68;94.15;96659.59;5065624;28;20028;-69
2022/02/17 07:42:49;;;;;;;14.68;3.13;;;;;;;1.76;94.32;96671.31;5065658;28;20021;-68
2022/02/17 07:45:15;;;;;;;11.43;2.65;;;;;;;1.78;94.17;96682.31;5065213;28;20052;-68
2022/02/17 07:47:45;;;;;;;17.13;3.50;;;;;;;1.84;94.32;96694.88;5047068;28;20052;-69
2022/02/17 07:50:15;;;;;;;14.18;2.75;;;;;;;1.87;94.52;96697.34;5064811;28;20489;-69
2022/02/17 07:52:41;;;;;;;6.97;2.40;;;;;;;1.90;94.37;96704.09;5064886;28;20032;-69
2022/02/17 07:55:07;;;;;;;10.93;3.10;;;;;;;1.89;94.51;96710.09;5065236;28;20025;-69
2022/02/17 07:57:32;;;;;;;15.85;2.33;;;;;;;1.98;94.61;96717.47;5064918;28;20066;-69
2022/02/17 07:59:58;;;;;;;14.80;2.70;;;;;;;2.03;94.52;96725.00;5064692;28;20037;-68
2022/02/17 08:02:23;;;;;;;10.18;2.42;;;;;;;2.07;94.58;96729.13;5064801;28;20109;-69
2022/02/17 08:04:48;;;;;;;11.70;3.72;;;;;;;2.08;94.37;96730.78;5064622;28;20085;-69
2022/02/17 08:07:13;;;;;;;7.57;2.03;;;;;;;2.10;94.24;96734.97;5064673;28;20053;-69
2022/02/17 08:09:39;;;;;;;14.30;2.80;;;;;;;2.02;94.44;96731.81;5064397;28;20017;-69
2022/02/17 08:12:04;;;;;;;9.45;2.25;;;;;;;2.07;94.06;96749.59;5063864;28;20036;-69
2022/02/17 08:14:30;;;;;;;9.80;2.20;;;;;;;2.17;94.76;96753.50;5064516;28;20100;-70
2022/02/17 08:16:55;;;;;;;8.95;1.73;;;;;;;2.70;96.00;96750.88;5064371;28;20088;-70
2022/02/17 08:19:20;;;;;;;10.35;2.45;;;;;;;3.52;96.26;96754.69;5064313;28;20151;-70
2022/02/17 08:21:46;;;;;;;11.63;2.22;;;;;;;4.51;95.72;96766.16;5064159;28;20036;-70
2022/02/17 08:24:13;;;;;;;9.68;2.60;;;;;;;5.36;94.59;96765.91;5046006;28;20021;-72
2022/02/17 08:26:39;;;;;;;4.40;1.77;;;;;;;6.32;93.31;96776.00;5046353;28;20326;-71
2022/02/17 08:29:06;;;;;;;7.05;1.83;;;;;;;7.17;91.23;96775.16;5064184;28;20053;-71
2022/02/17 08:31:32;;;;;;;10.93;2.25;;;;;;;7.27;88.12;96788.38;5064073;28;20134;-71
2022/02/17 08:34:03;;;;;;;7.05;2.05;;;;;;;6.92;88.29;96800.47;5063967;28;20032;-71
2022/02/17 08:36:29;;;;;;;13.43;2.83;;;;;;;7.17;87.35;96808.69;5063893;28;20053;-71
2022/02/17 08:38:54;;;;;;;7.20;1.90;;;;;;;7.57;86.57;96810.88;5063925;28;20028;-72
2022/02/17 08:41:20;;;;;;;8.18;1.80;;;;;;;8.21;84.99;96814.31;5045907;28;20023;-71
2022/02/17 08:43:46;;;;;;;9.75;2.47;;;;;;;8.61;81.26;96834.50;5064108;28;20098;-72
2022/02/17 08:46:11;;;;;;;5.40;2.03;;;;;;;8.88;81.56;96838.97;5045921;28;20021;-71
2022/02/17 08:48:36;;;;;;;6.22;1.80;;;;;;;9.37;81.45;96840.34;5045983;28;20021;-71
2022/02/17 08:51:02;;;;;;;9.57;1.95;;;;;;;9.24;79.83;96849.78;5063834;28;20104;-71
2022/02/17 08:53:28;;;;;;;8.00;2.55;;;;;;;8.62;79.72;96860.25;5063717;28;20492;-71
2022/02/17 08:55:54;;;;;;;10.82;1.75;;;;;;;8.11;81.13;96861.34;5064036;28;20121;-70
2022/02/17 08:58:19;;;;;;;10.48;2.10;;;;;;;8.18;81.91;96870.41;5063472;28;20425;-70
2022/02/17 09:00:44;;;;;;;7.72;2.42;;;;;;;8.73;81.72;96867.38;5063467;28;20088;-71
2022/02/17 09:03:11;;;;;;;7.57;1.98;;;;;;;9.37;80.29;96871.41;5063551;28;20028;-70
2022/02/17 09:05:40;;;;;;;5.38;1.60;;;;;;;9.88;78.68;96877.00;5063410;28;20039;-70
2022/02/17 09:08:06;;;;;;;4.70;2.03;;;;;;;10.21;77.45;96880.16;5063130;28;20027;-70
2022/02/17 09:10:32;;;;;;;9.18;2.13;;;;;;;10.61;75.75;96884.53;5063378;28;20024;-69
2022/02/17 09:12:58;;;;;;;9.40;1.90;;;;;;;10.86;74.88;96891.53;5063481;28;20032;-70
2022/02/17 09:15:23;;;;;;;7.05;1.58;;;;;;;10.91;73.65;96889.47;5063381;28;20017;-70
2022/02/17 09:17:49;;;;;;;2.65;1.17;;;;;;;11.02;74.17;96896.53;5063751;28;20084;-69
2022/02/17 09:20:15;;;;;;;10.65;1.95;;;;;;;11.07;72.51;96905.78;5063183;28;20021;-69
2022/02/17 09:22:42;;;;;;;6.93;2.05;;;;;;;10.98;73.82;96909.81;5062446;28;20021;-70
2022/02/17 09:25:08;;;;;;;6.20;1.75;;;;;;;10.95;74.06;96915.22;5063060;28;20079;-69
2022/02/17 09:27:34;;;;;;;7.93;1.90;;;;;;;10.56;74.21;96925.53;5063216;28;20036;-69
2022/02/17 09:30:00;;;;;;;8.18;1.85;;;;;;;10.11;75.22;96929.16;5063050;28;20024;-69
2022/02/17 09:32:25;;;;;;;6.25;1.50;;;;;;;10.02;76.73;96941.75;5063062;28;20044;-69
2022/02/17 09:34:51;;;;;;;6.90;1.55;;;;;;;10.13;77.36;96940.22;5063005;28;20024;-70
2022/02/17 09:37:17;;;;;;;7.20;1.70;;;;;;;10.27;76.02;96949.75;5062428;28;20033;-69
2022/02/17 09:39:43;;;;;;;7.18;1.75;;;;;;;10.57;76.74;96953.97;5062829;28;20021;-70
2022/02/17 09:42:09;;;;;;;7.72;2.10;;;;;;;10.95;77.78;96955.00;5062921;28;20067;-69
2022/02/17 09:44:35;;;;;;;3.95;1.50;;;;;;;11.40;77.21;96952.03;5062785;28;20028;-69
2022/02/17 09:47:02;;;;;;;6.68;1.90;;;;;;;11.61;76.86;96969.66;5044972;28;20024;-69
2022/02/17 09:49:30;;;;;;;5.30;1.92;;;;;;;11.59;76.98;96961.16;5062695;28;20025;-70
2022/02/17 09:51:56;;;;;;;9.43;1.70;;;;;;;11.55;76.80;96969.28;5062900;28;20030;-69
2022/02/17 09:54:21;;;;;;;9.73;1.90;;;;;;;11.49;77.41;96975.69;5062775;28;20116;-70
2022/02/17 09:56:47;;;;;;;4.95;1.90;;;;;;;11.29;77.98;96977.88;5062857;28;20017;-70
2022/02/17 09:59:12;;;;;;;5.72;1.80;;;;;;;11.12;74.87;96990.22;5044540;28;20028;-70
2022/02/17 10:01:38;;;;;;;9.77;2.17;;;;;;;10.62;73.33;96995.97;5062540;28;20025;-70
2022/02/17 10:04:15;;;;;;;8.63;2.38;;;;;;;10.35;74.61;96996.75;5062707;28;20025;-69
2022/02/17 10:06:51;;;;;;;8.90;1.83;;;;;;;10.04;74.48;97006.44;5062339;28;20021;-69
2022/02/17 10:09:18;;;;;;;10.23;1.98;;;;;;;9.75;75.99;97004.69;5062295;28;20029;-69
2022/02/17 10:11:46;;;;;;;9.52;2.08;;;;;;;9.45;76.47;97012.50;5062237;28;20067;-70
2022/02/17 10:14:14;;;;;;;12.77;2.75;;;;;;;8.96;76.38;97022.19;5062467;28;20080;-69
2022/02/17 10:16:54;;;;;;;9.57;2.17;;;;;;;8.49;77.30;97024.69;5062560;28;20017;-70
2022/02/17 10:19:25;;;;;;;5.65;2.00;;;;;;;8.15;77.27;97043.69;5044416;28;20032;-70
2022/02/17 10:22:04;;;;;;;11.98;2.70;;;;;;;7.79;76.99;97047.28;5062297;28;20025;-70
2022/02/17 10:24:31;;;;;;;11.77;2.17;;;;;;;7.72;78.62;97051.06;5044102;28;20466;-70
2022/02/17 10:27:05;;;;;;;14.40;3.33;;;;;;;7.74;78.42;97054.41;5062422;28;20488;-70
2022/02/17 10:29:34;;;;;;;10.90;2.67;;;;;;;7.78;78.06;97058.53;5044317;28;20033;-70
2022/02/17 10:32:12;;;;;;;11.45;3.15;;;;;;;7.96;78.95;97061.06;5062307;28;20021;-70
2022/02/17 10:34:40;;;;;;;7.93;1.92;;;;;;;7.92;78.73;97068.97;5064709;28;20025;-70
2022/02/17 10:37:06;;;;;;;9.32;2.10;;;;;;;7.75;78.00;97061.25;5066065;28;20025;-70
2022/02/17 10:39:34;;;;;;;13.85;3.00;;;;;;;7.54;78.76;97064.84;5066069;28;20051;-70
2022/02/17 10:42:09;;;;;;;9.20;1.98;;;;;;;7.29;77.37;97062.63;5066205;28;20081;-69
2022/02/17 10:44:42;;;;;;;10.45;2.17;;;;;;;7.24;78.52;97074.91;5065398;28;20033;-70
2022/02/17 10:47:26;;;;;;;9.25;2.17;;;;;;;7.11;79.62;97075.53;5065392;28;20028;-70
2022/02/17 10:49:53;;;;;;;10.15;2.53;;;;;;;6.97;79.52;97073.59;5065070;28;20025;-70
2022/02/17 10:52:30;;;;;;;9.77;2.35;;;;;;;6.76;77.89;97083.19;5065746;28;20644;-70
2022/02/17 10:55:20;;;;;;;10.23;2.50;;;;;;;6.81;79.23;97087.22;5066016;28;20025;-70
2022/02/17 10:57:46;;;;;;;10.93;2.00;;;;;;;6.78;79.65;97086.53;5065993;28;20104;-70
2022/02/17 11:00:17;;;;;;;8.98;2.08;;;;;;;6.75;78.57;97097.84;5065770;28;20033;-70
2022/02/17 11:02:44;;;;;;;8.80;2.20;;;;;;;6.69;79.25;97101.50;5065931;28;20017;-70
2022/02/17 11:05:11;;;;;;;11.90;1.83;;;;;;;6.56;78.98;97103.00;5047453;28;20035;-70
2022/02/17 11:07:37;;;;;;;12.40;2.65;;;;;;;6.25;77.52;97101.78;5065461;28;20021;-71
2022/02/17 11:10:03;;;;;;;6.15;1.55;;;;;;;5.97;78.05;97093.50;5065796;28;20021;-71
2022/02/17 11:12:30;;;;;;;6.95;1.80;;;;;;;5.82;77.87;97118.16;5065659;28;20095;-70
2022/02/17 11:14:58;;;;;;;9.23;1.98;;;;;;;5.57;76.48;97116.59;5047626;28;20021;-69
2022/02/17 11:17:24;;;;;;;8.02;1.25;;;;;;;5.45;76.65;97110.22;5065573;28;20024;-70
2022/02/17 11:19:52;;;;;;;7.72;1.65;;;;;;;5.32;76.92;97112.44;5065429;28;20222;-70
2022/02/17 11:22:18;;;;;;;8.82;1.40;;;;;;;5.21;77.39;97116.28;5065375;28;20079;-69
2022/02/17 11:24:51;;;;;;;6.65;1.58;;;;;;;5.20;77.94;97124.06;5065413;28;20052;-70
2022/02/17 11:27:18;;;;;;;10.95;1.58;;;;;;;5.08;75.87;97125.38;5064871;28;20029;-69
2022/02/17 11:29:45;;;;;;;10.57;1.73;;;;;;;4.98;76.08;97122.34;5064104;28;20045;-69
2022/02/17 11:32:14;;;;;;;7.05;1.85;;;;;;;4.90;75.57;97132.09;5064931;28;20037;-69
2022/02/17 11:34:58;;;;;;;6.63;1.60;;;;;;;4.84;77.26;97128.00;5065180;28;20024;-70